Time;durP1;ratioP1;P1;durP2;ratioP2;P2;SDS_P1;SDS_P2;PMS_P1;PMS_P2;Temp;Humidity;BMP_temperature;BMP_pressure;BME280_temperature;BME280_humidity;BME280_pressure;Samples;Min_cycle;Max_cycle;Signal;HPM_P1;HPM_P2
2021/12/06 00:00:36;;;;;;;;;;;;;;;5.24;72.08;101092.00;5051998;28;19925;-61
2021/12/06 00:03:03;;;;;;;;;;;;;;;5.25;72.22;101090.09;5052018;28;19979;-61
2021/12/06 00:05:29;;;;;;;;;;;;;;;5.26;72.04;101091.78;5050354;28;20356;-61
2021/12/06 00:07:54;;;;;;;;;;;;;;;5.26;71.92;101098.13;5052542;28;19939;-62
2021/12/06 00:10:20;;;;;;;;;;;;;;;5.27;72.45;101093.50;5053154;28;19940;-61
2021/12/06 00:12:45;;;;;;;;;;;;;;;5.26;72.17;101102.78;5050543;28;19924;-61
2021/12/06 00:15:12;;;;;;;;;;;;;;;5.26;72.74;101098.13;5052482;28;19917;-61
2021/12/06 00:17:38;;;;;;;;;;;;;;;5.27;72.27;101104.50;5046294;28;20284;-61
2021/12/06 00:20:04;;;;;;;;;;;;;;;5.27;72.14;101110.84;5051525;28;19920;-61
2021/12/06 00:22:29;;;;;;;;;;;;;;;5.28;72.10;101114.44;5051152;28;19924;-62
2021/12/06 00:24:55;;;;;;;;;;;;;;;5.28;72.31;101115.28;5052451;28;20261;-61
2021/12/06 00:27:22;;;;;;;;;;;;;;;5.29;72.12;101125.22;5049147;28;19928;-61
2021/12/06 00:29:48;;;;;;;;;;;;;;;5.28;72.57;101122.69;5051826;28;19920;-61
2021/12/06 00:32:13;;;;;;;;;;;;;;;5.31;72.30;101119.53;5051395;28;19966;-61
2021/12/06 00:34:39;;;;;;;;;;;;;;;5.31;72.22;101122.28;5047010;28;19990;-61
2021/12/06 00:37:23;;;;;;;;;;;;;;;5.31;72.40;101130.53;5056943;28;19927;-61
2021/12/06 00:39:59;;;;;;;;;;;;;;;5.32;72.81;101127.56;5055540;28;19968;-61
2021/12/06 00:42:27;;;;;;;;;;;;;;;5.31;72.08;101131.38;5056011;28;20346;-61
2021/12/06 00:44:53;;;;;;;;;;;;;;;5.32;72.34;101138.56;5055217;28;19924;-61
2021/12/06 00:47:18;;;;;;;;;;;;;;;5.32;72.26;101146.00;5054710;28;19927;-61
2021/12/06 00:49:47;;;;;;;;;;;;;;;5.33;72.43;101147.69;5056303;28;19921;-61
2021/12/06 00:52:13;;;;;;;;;;;;;;;5.33;72.30;101150.44;5048685;28;19921;-61
2021/12/06 00:54:38;;;;;;;;;;;;;;;5.33;72.49;101153.19;5054617;28;20354;-61
2021/12/06 00:57:05;;;;;;;;;;;;;;;5.34;72.42;101163.13;5054453;28;19928;-61
2021/12/06 00:59:30;;;;;;;;;;;;;;;5.34;72.42;101169.47;5056164;28;19974;-61
2021/12/06 01:01:56;;;;;;;;;;;;;;;5.34;72.31;101177.72;5055073;28;19924;-61
2021/12/06 01:04:21;;;;;;;;;;;;;;;5.34;72.43;101174.97;5055385;28;19925;-61
2021/12/06 01:06:46;;;;;;;;;;;;;;;5.34;72.48;101179.63;5055843;28;20391;-61
2021/12/06 01:09:11;;;;;;;;;;;;;;;5.36;72.80;101181.13;5049951;28;19929;-62
2021/12/06 01:11:36;;;;;;;;;;;;;;;5.38;72.22;101175.41;5045371;28;19920;-61
2021/12/06 01:14:02;;;;;;;;;;;;;;;5.40;72.45;101181.56;5055288;28;19974;-62
2021/12/06 01:16:29;;;;;;;;;;;;;;;5.42;72.40;101179.44;5053834;28;19927;-61
2021/12/06 01:18:54;;;;;;;;;;;;;;;5.43;72.55;101180.31;5054895;28;20288;-61
2021/12/06 01:21:27;;;;;;;;;;;;;;;5.44;72.25;101193.84;5055064;28;19917;-61
2021/12/06 01:23:57;;;;;;;;;;;;;;;5.44;72.61;101187.50;5053234;28;20384;-61
2021/12/06 01:26:38;;;;;;;;;;;;;;;5.44;72.41;101199.34;5051182;28;20392;-61
2021/12/06 01:29:42;;;;;;;;;;;;;;;5.44;72.47;101184.75;5052069;28;19927;-61
2021/12/06 01:32:21;;;;;;;;;;;;;;;5.45;72.52;101192.78;5054522;28;19952;-61
2021/12/06 01:40:19;;;;;;;;;;;;;;;5.46;72.36;101196.38;5055303;28;20424;-61
2021/12/06 01:42:44;;;;;;;;;;;;;;;5.45;72.40;101200.19;5053503;28;19921;-61
2021/12/06 01:45:09;;;;;;;;;;;;;;;5.45;72.72;101203.78;5049128;28;20011;-61
2021/12/06 01:47:35;;;;;;;;;;;;;;;5.45;72.88;101206.53;5050623;28;20304;-61
2021/12/06 01:50:04;;;;;;;;;;;;;;;5.46;73.06;101213.75;5053010;28;20299;-61
2021/12/06 01:52:31;;;;;;;;;;;;;;;5.44;72.57;101215.88;5054765;28;19928;-61
2021/12/06 01:54:58;;;;;;;;;;;;;;;5.45;72.34;101217.56;5039063;28;19987;-62
2021/12/06 01:57:24;;;;;;;;;;;;;;;5.44;72.71;101221.38;5027009;28;19925;-61
2021/12/06 01:59:49;;;;;;;;;;;;;;;5.44;72.75;101220.53;5029914;28;20492;-61
2021/12/06 02:02:15;;;;;;;;;;;;;;;5.43;72.89;101225.19;5031993;28;19929;-61
2021/12/06 02:04:41;;;;;;;;;;;;;;;5.45;72.66;101219.47;5033021;28;19924;-61
2021/12/06 02:07:07;;;;;;;;;;;;;;;5.46;72.86;101213.75;5034377;28;19921;-61
2021/12/06 02:09:33;;;;;;;;;;;;;;;5.46;73.04;101219.25;5033120;28;19963;-61
2021/12/06 02:12:00;;;;;;;;;;;;;;;5.47;72.79;101214.63;5032037;28;19925;-61
2021/12/06 02:14:46;;;;;;;;;;;;;;;5.46;73.01;101222.00;5031657;28;19952;-61
2021/12/06 02:17:17;;;;;;;;;;;;;;;5.45;72.71;101216.72;5029322;28;20269;-61
2021/12/06 02:19:49;;;;;;;;;;;;;;;5.45;72.75;101219.47;5030840;28;19921;-61
2021/12/06 02:22:19;;;;;;;;;;;;;;;5.46;72.85;101232.16;5032458;28;20019;-61
2021/12/06 02:24:44;;;;;;;;;;;;;;;5.46;72.61;101223.91;5036029;28;19929;-61
2021/12/06 02:27:10;;;;;;;;;;;;;;;5.45;72.81;101230.47;5032498;28;19995;-61
2021/12/06 02:29:36;;;;;;;;;;;;;;;5.45;72.78;101235.97;5033461;28;19921;-62
2021/12/06 02:32:05;;;;;;;;;;;;;;;5.43;72.83;101236.19;5031312;28;19928;-61
2021/12/06 02:34:31;;;;;;;;;;;;;;;5.43;73.07;101241.72;5029681;28;19982;-61
2021/12/06 02:36:56;;;;;;;;;;;;;;;5.44;72.84;101243.41;5029182;28;20363;-61
2021/12/06 02:39:24;;;;;;;;;;;;;;;5.43;72.70;101238.97;5030985;28;19922;-61
2021/12/06 02:41:51;;;;;;;;;;;;;;;5.45;72.58;101255.25;5033742;28;19979;-61
2021/12/06 02:44:17;;;;;;;;;;;;;;;5.46;72.97;101251.44;5028211;28;19928;-61
2021/12/06 02:46:43;;;;;;;;;;;;;;;5.46;72.76;101262.44;5030408;28;20004;-61
2021/12/06 02:49:09;;;;;;;;;;;;;;;5.46;73.36;101256.94;5034144;28;20373;-61
2021/12/06 02:51:34;;;;;;;;;;;;;;;5.47;73.18;101262.25;5030853;28;20346;-61
2021/12/06 02:53:59;;;;;;;;;;;;;;;5.46;72.90;101263.28;5026533;28;20007;-61
2021/12/06 02:56:50;;;;;;;;;;;;;;;5.47;72.78;101261.41;5047127;28;19949;-62
2021/12/06 02:59:15;;;;;;;;;;;;;;;5.47;72.67;101264.16;5051769;28;19936;-61
2021/12/06 03:01:42;;;;;;;;;;;;;;;5.47;73.12;101276.03;5052119;28;19927;-61
2021/12/06 03:04:08;;;;;;;;;;;;;;;5.47;72.89;101275.19;5053029;28;20011;-61
2021/12/06 03:06:35;;;;;;;;;;;;;;;5.48;72.85;101277.72;5053316;28;20371;-61
2021/12/06 03:09:06;;;;;;;;;;;;;;;5.46;72.90;101274.31;5052433;28;19927;-62
2021/12/06 03:11:39;;;;;;;;;;;;;;;5.46;73.38;101268.81;5053000;28;19927;-61
2021/12/06 03:14:06;;;;;;;;;;;;;;;5.46;72.79;101274.31;5049827;28;19928;-61
2021/12/06 03:16:31;;;;;;;;;;;;;;;5.46;73.28;101271.56;5050854;28;19927;-61
2021/12/06 03:18:56;;;;;;;;;;;;;;;5.47;72.86;101278.78;5053238;28;20015;-62
2021/12/06 03:21:22;;;;;;;;;;;;;;;5.47;72.94;101275.19;5059154;28;19921;-62
2021/12/06 03:23:48;;;;;;;;;;;;;;;5.47;72.98;101270.50;5052341;28;19921;-61
2021/12/06 03:26:14;;;;;;;;;;;;;;;5.47;72.94;101275.19;5052888;28;19947;-61
2021/12/06 03:28:40;;;;;;;;;;;;;;;5.47;72.80;101275.19;5052294;28;20349;-61
2021/12/06 03:31:06;;;;;;;;;;;;;;;5.43;72.74;101269.25;5048641;28;20000;-61
2021/12/06 03:33:34;;;;;;;;;;;;;;;5.46;73.44;101263.28;5049746;28;20006;-61
2021/12/06 03:35:59;;;;;;;;;;;;;;;5.46;72.78;101273.47;5052535;28;20304;-61
2021/12/06 03:38:24;;;;;;;;;;;;;;;5.48;72.72;101272.22;5042412;28;20392;-61
2021/12/06 03:40:50;;;;;;;;;;;;;;;5.48;72.79;101280.47;5037543;28;19927;-61
2021/12/06 03:43:16;;;;;;;;;;;;;;;5.50;72.75;101277.50;5044903;28;19929;-61
2021/12/06 03:45:41;;;;;;;;;;;;;;;5.50;72.93;101283.88;5037843;28;20288;-61
2021/12/06 03:48:06;;;;;;;;;;;;;;;5.49;73.29;101282.16;5049733;28;19999;-61
2021/12/06 03:50:31;;;;;;;;;;;;;;;5.49;72.86;101282.16;5049928;28;19923;-61
2021/12/06 03:52:56;;;;;;;;;;;;;;;5.48;72.86;101277.72;5046707;28;20011;-61
2021/12/06 03:55:22;;;;;;;;;;;;;;;5.47;73.21;101275.19;5034612;28;19921;-61
2021/12/06 03:57:47;;;;;;;;;;;;;;;5.47;73.33;101275.19;5046889;28;19956;-61
2021/12/06 04:00:12;;;;;;;;;;;;;;;5.46;72.89;101273.47;5046163;28;19963;-61
2021/12/06 04:02:38;;;;;;;;;;;;;;;5.45;73.08;101278.13;5051971;28;19921;-61
2021/12/06 04:05:06;;;;;;;;;;;;;;;5.44;73.29;101276.44;5051558;28;19924;-61
2021/12/06 04:07:32;;;;;;;;;;;;;;;5.44;72.95;101287.44;5050350;28;19928;-61
2021/12/06 04:09:57;;;;;;;;;;;;;;;5.43;73.05;101288.50;5051846;28;19921;-61
2021/12/06 04:12:22;;;;;;;;;;;;;;;5.43;73.00;101290.41;5051463;28;19921;-61
2021/12/06 04:14:47;;;;;;;;;;;;;;;5.41;73.20;101294.22;5052018;28;19947;-61
2021/12/06 04:17:13;;;;;;;;;;;;;;;5.40;72.84;101294.44;5043840;28;20412;-61
2021/12/06 04:19:39;;;;;;;;;;;;;;;5.41;73.14;101293.38;5047585;28;19921;-61
2021/12/06 04:22:04;;;;;;;;;;;;;;;5.40;73.32;101288.91;5051061;28;19921;-61
2021/12/06 04:24:29;;;;;;;;;;;;;;;5.40;73.32;101281.50;5051924;28;19917;-61
2021/12/06 04:26:55;;;;;;;;;;;;;;;5.40;73.20;101286.16;5051872;28;19921;-61
2021/12/06 04:29:20;;;;;;;;;;;;;;;5.39;73.05;101290.00;5052599;28;19928;-61
2021/12/06 04:31:47;;;;;;;;;;;;;;;5.39;72.98;101292.75;5050446;28;19921;-62
2021/12/06 04:34:12;;;;;;;;;;;;;;;5.38;73.22;101282.75;5052319;28;20257;-61
2021/12/06 04:36:39;;;;;;;;;;;;;;;5.38;73.25;101285.50;5050672;28;19931;-61
2021/12/06 04:39:06;;;;;;;;;;;;;;;5.37;73.24;101294.84;5050518;28;19952;-61
2021/12/06 04:41:31;;;;;;;;;;;;;;;5.34;72.80;101298.00;5052675;28;19924;-61
2021/12/06 04:43:56;;;;;;;;;;;;;;;5.32;72.63;101300.13;5052435;28;19968;-61
2021/12/06 04:46:22;;;;;;;;;;;;;;;5.28;72.96;101291.44;5050287;28;19927;-61
2021/12/06 04:48:47;;;;;;;;;;;;;;;5.27;72.85;101297.16;5048396;28;19951;-61
2021/12/06 04:51:12;;;;;;;;;;;;;;;5.25;72.92;101307.50;5050143;28;19940;-61
2021/12/06 04:53:37;;;;;;;;;;;;;;;5.22;72.91;101305.16;5051343;28;19927;-61
2021/12/06 04:56:21;;;;;;;;;;;;;;;5.17;72.78;101312.13;5051963;28;19933;-61
2021/12/06 04:58:49;;;;;;;;;;;;;;;5.12;72.78;101308.31;5051171;28;19921;-61
2021/12/06 05:01:17;;;;;;;;;;;;;;;5.08;73.04;101310.63;5051127;28;19927;-61
2021/12/06 05:03:42;;;;;;;;;;;;;;;5.06;72.78;101314.63;5052074;28;19974;-61
2021/12/06 05:06:11;;;;;;;;;;;;;;;5.03;72.64;101310.41;5046537;28;19924;-62
2021/12/06 05:08:39;;;;;;;;;;;;;;;5.01;72.74;101311.66;5049495;28;19927;-61
2021/12/06 05:11:04;;;;;;;;;;;;;;;4.99;72.59;101316.50;5051527;28;19925;-61
2021/12/06 05:13:30;;;;;;;;;;;;;;;4.93;72.43;101310.78;5050176;28;19921;-61
2021/12/06 05:15:56;;;;;;;;;;;;;;;4.93;72.54;101313.53;5048678;28;19929;-61
2021/12/06 05:18:21;;;;;;;;;;;;;;;4.91;72.50;101326.66;5050533;28;20429;-61
2021/12/06 05:20:46;;;;;;;;;;;;;;;4.88;72.50;101320.72;5051460;28;20284;-61
2021/12/06 05:23:12;;;;;;;;;;;;;;;4.84;72.76;101330.44;5053048;28;20061;-61
2021/12/06 05:25:38;;;;;;;;;;;;;;;4.80;72.31;101324.47;5052619;28;19916;-61
2021/12/06 05:28:04;;;;;;;;;;;;;;;4.77;72.45;101329.53;5053238;28;19971;-62
2021/12/06 05:30:30;;;;;;;;;;;;;;;4.75;72.38;101331.63;5052613;28;19928;-61
2021/12/06 05:32:59;;;;;;;;;;;;;;;4.73;72.15;101328.25;5056153;28;19917;-61
2021/12/06 05:35:25;;;;;;;;;;;;;;;4.72;72.34;101323.81;5053960;28;19928;-61
2021/12/06 05:37:53;;;;;;;;;;;;;;;4.68;72.40;101326.09;5054406;28;20284;-61
2021/12/06 05:40:23;;;;;;;;;;;;;;;4.65;72.09;101329.25;5049631;28;19920;-61
2021/12/06 05:42:49;;;;;;;;;;;;;;;4.63;72.27;101328.59;5054979;28;20291;-61
2021/12/06 05:45:15;;;;;;;;;;;;;;;4.62;72.36;101327.75;5053928;28;19929;-61
2021/12/06 05:47:40;;;;;;;;;;;;;;;4.63;72.46;101332.19;5048003;28;20372;-61
2021/12/06 05:50:06;;;;;;;;;;;;;;;4.62;72.48;101326.91;5048508;28;19927;-61
2021/12/06 05:52:31;;;;;;;;;;;;;;;4.64;72.45;101327.56;5052497;28;19927;-61
2021/12/06 05:54:56;;;;;;;;;;;;;;;4.62;72.58;101316.75;5052282;28;19920;-61
2021/12/06 05:57:22;;;;;;;;;;;;;;;4.62;72.57;101338.75;5049889;28;19939;-61
2021/12/06 05:59:47;;;;;;;;;;;;;;;4.64;72.53;101333.91;5054312;28;19928;-61
2021/12/06 06:02:12;;;;;;;;;;;;;;;4.63;72.72;101332.19;5052436;28;20438;-61
2021/12/06 06:04:38;;;;;;;;;;;;;;;4.62;72.71;101338.75;5052825;28;19928;-61
2021/12/06 06:07:04;;;;;;;;;;;;;;;4.61;72.84;101347.22;5052281;28;20767;-61
2021/12/06 06:09:29;;;;;;;;;;;;;;;4.61;72.52;101345.31;5051833;28;19921;-61
2021/12/06 06:11:54;;;;;;;;;;;;;;;4.61;72.86;101353.56;5052276;28;20364;-61
2021/12/06 06:14:20;;;;;;;;;;;;;;;4.63;72.68;101361.59;5050116;28;19928;-61
2021/12/06 06:16:51;;;;;;;;;;;;;;;4.64;72.90;101363.31;5048618;28;19974;-61
2021/12/06 06:19:17;;;;;;;;;;;;;;;4.64;72.92;101363.31;5052637;28;19921;-61
2021/12/06 06:21:43;;;;;;;;;;;;;;;4.63;72.80;101370.69;5051931;28;20308;-61
2021/12/06 06:24:08;;;;;;;;;;;;;;;4.64;73.08;101377.06;5051203;28;19928;-61
2021/12/06 06:26:33;;;;;;;;;;;;;;;4.64;72.71;101377.91;5048872;28;19924;-61
2021/12/06 06:28:58;;;;;;;;;;;;;;;4.62;72.89;101371.75;5051767;28;19916;-61
2021/12/06 06:31:23;;;;;;;;;;;;;;;4.63;72.82;101373.44;5046831;28;19929;-61
2021/12/06 06:33:49;;;;;;;;;;;;;;;4.62;72.85;101371.75;5052712;28;19927;-61
2021/12/06 06:36:14;;;;;;;;;;;;;;;4.57;72.80;101374.25;5049340;28;19990;-61
2021/12/06 06:38:39;;;;;;;;;;;;;;;4.57;72.74;101373.41;5051678;28;19921;-61
2021/12/06 06:41:04;;;;;;;;;;;;;;;4.57;73.00;101376.16;5050132;28;19927;-61
2021/12/06 06:43:30;;;;;;;;;;;;;;;4.57;72.81;101374.25;5052217;28;19921;-61
2021/12/06 06:45:56;;;;;;;;;;;;;;;4.57;72.93;101377.00;5046475;28;19935;-61
2021/12/06 06:48:21;;;;;;;;;;;;;;;4.56;73.06;101377.19;5046444;28;19920;-60
2021/12/06 06:50:46;;;;;;;;;;;;;;;4.54;73.01;101371.91;5051598;28;19929;-60
2021/12/06 06:53:11;;;;;;;;;;;;;;;4.54;73.40;101373.81;5050033;28;19929;-60
2021/12/06 06:55:37;;;;;;;;;;;;;;;4.56;73.23;101372.56;5047426;28;19925;-60
2021/12/06 06:58:02;;;;;;;;;;;;;;;4.58;73.08;101369.59;5045907;28;19935;-61
2021/12/06 07:00:34;;;;;;;;;;;;;;;4.58;73.31;101375.94;5042648;28;19928;-62
2021/12/06 07:03:02;;;;;;;;;;;;;;;4.60;73.28;101381.25;5048810;28;20352;-62
2021/12/06 07:05:28;;;;;;;;;;;;;;;4.61;73.12;101374.69;5048259;28;19925;-62
2021/12/06 07:07:54;;;;;;;;;;;;;;;4.61;73.42;101380.19;5048040;28;20063;-58
2021/12/06 07:10:20;;;;;;;;;;;;;;;4.60;73.27;101382.09;5047579;28;20015;-61
2021/12/06 07:12:48;;;;;;;;;;;;;;;4.60;73.10;101379.34;5046755;28;19928;-58
2021/12/06 07:15:30;;;;;;;;;;;;;;;4.61;73.37;101375.56;5047583;28;19947;-57
2021/12/06 07:17:56;;;;;;;;;;;;;;;4.61;73.39;101381.03;5044407;28;19960;-57
2021/12/06 07:20:22;;;;;;;;;;;;;;;4.61;73.43;101392.03;5043282;28;19971;-59
2021/12/06 07:22:51;;;;;;;;;;;;;;;4.61;73.03;101400.28;5048685;28;20012;-60
2021/12/06 07:25:17;;;;;;;;;;;;;;;4.63;73.19;101398.19;5048740;28;19925;-59
2021/12/06 07:27:42;;;;;;;;;;;;;;;4.63;73.15;101397.34;5046897;28;19978;-60
2021/12/06 07:30:08;;;;;;;;;;;;;;;4.64;73.36;101402.66;5048027;28;19975;-60
2021/12/06 07:32:34;;;;;;;;;;;;;;;4.66;73.33;101406.03;5046378;28;19944;-60
2021/12/06 07:34:59;;;;;;;;;;;;;;;4.69;73.46;101407.53;5045627;28;20273;-60
2021/12/06 07:37:24;;;;;;;;;;;;;;;4.71;73.27;101419.16;5035618;28;19979;-60
2021/12/06 07:39:50;;;;;;;;;;;;;;;4.73;73.21;101416.25;5046615;28;19939;-60
2021/12/06 07:42:15;;;;;;;;;;;;;;;4.75;73.31;101414.13;5045618;28;19935;-61
2021/12/06 07:44:40;;;;;;;;;;;;;;;4.78;73.31;101414.56;5046366;28;19925;-60
2021/12/06 07:47:06;;;;;;;;;;;;;;;4.79;73.43;101408.00;5045997;28;20361;-61
2021/12/06 07:49:31;;;;;;;;;;;;;;;4.80;73.33;101400.63;5042843;28;19931;-62
2021/12/06 07:51:56;;;;;;;;;;;;;;;4.80;73.18;101400.63;5046837;28;20004;-61
2021/12/06 07:54:22;;;;;;;;;;;;;;;4.81;73.27;101394.06;5047206;28;19933;-66
2021/12/06 07:56:47;;;;;;;;;;;;;;;4.81;73.40;101391.31;5055110;28;20277;-60
2021/12/06 07:59:13;;;;;;;;;;;;;;;4.84;73.37;101388.19;5046747;28;19921;-63
2021/12/06 08:01:38;;;;;;;;;;;;;;;4.85;73.46;101387.13;5047977;28;19928;-58
2021/12/06 08:04:04;;;;;;;;;;;;;;;4.85;73.35;101381.63;5047872;28;20370;-60
2021/12/06 08:06:29;;;;;;;;;;;;;;;4.90;73.71;101381.84;5042365;28;20273;-59
2021/12/06 08:08:54;;;;;;;;;;;;;;;4.91;73.60;101375.28;5046348;28;19928;-60
2021/12/06 08:11:21;;;;;;;;;;;;;;;4.91;73.48;101383.53;5047129;28;19921;-59
2021/12/06 08:13:50;;;;;;;;;;;;;;;4.91;73.66;101381.66;5049331;28;19921;-59
2021/12/06 08:16:17;;;;;;;;;;;;;;;4.92;73.14;101380.59;5048558;28;19920;-60
2021/12/06 08:18:44;;;;;;;;;;;;;;;4.92;73.35;101379.75;5046322;28;19998;-60
2021/12/06 08:21:09;;;;;;;;;;;;;;;4.93;73.44;101386.94;5047955;28;20368;-59
2021/12/06 08:23:35;;;;;;;;;;;;;;;4.94;73.31;101380.38;5045153;28;19935;-59
2021/12/06 08:26:00;;;;;;;;;;;;;;;4.93;73.36;101382.28;5049373;28;19927;-60
2021/12/06 08:28:28;;;;;;;;;;;;;;;4.96;73.86;101383.81;5049103;28;19917;-61
2021/12/06 08:30:53;;;;;;;;;;;;;;;5.04;73.38;101380.03;5049724;28;19931;-62
2021/12/06 08:33:19;;;;;;;;;;;;;;;5.01;73.48;101389.53;5049183;28;20027;-62
2021/12/06 08:35:45;;;;;;;;;;;;;;;5.00;73.17;101396.09;5053300;28;19933;-63
2021/12/06 08:38:12;;;;;;;;;;;;;;;4.99;74.01;101399.91;5048242;28;19928;-62
2021/12/06 08:40:38;;;;;;;;;;;;;;;4.99;73.48;101405.41;5046089;28;19921;-62
2021/12/06 08:43:04;;;;;;;;;;;;;;;4.97;73.35;101417.66;5045810;28;19971;-62
2021/12/06 08:45:30;;;;;;;;;;;;;;;4.94;73.62;101416.16;5047481;28;19970;-63
2021/12/06 08:47:56;;;;;;;;;;;;;;;4.91;73.39;101424.81;5047179;28;19939;-65
2021/12/06 08:50:22;;;;;;;;;;;;;;;4.89;73.43;101429.66;5049746;28;19928;-61
2021/12/06 08:52:48;;;;;;;;;;;;;;;4.87;73.13;101424.38;5055001;28;20273;-63
2021/12/06 08:55:13;;;;;;;;;;;;;;;4.85;73.44;101420.97;5050708;28;19932;-63
2021/12/06 08:57:39;;;;;;;;;;;;;;;4.84;73.37;101426.69;5049585;28;19987;-61
2021/12/06 09:00:06;;;;;;;;;;;;;;;4.83;73.35;101430.47;5048216;28;19957;-61
2021/12/06 09:02:31;;;;;;;;;;;;;;;4.83;73.53;101430.47;5052760;28;19975;-63
2021/12/06 09:04:56;;;;;;;;;;;;;;;4.84;73.82;101435.78;5055074;28;19957;-62
2021/12/06 09:07:23;;;;;;;;;;;;;;;4.83;73.66;101428.56;5054210;28;19925;-62
2021/12/06 09:09:50;;;;;;;;;;;;;;;4.84;73.68;101434.94;5054331;28;19925;-62
2021/12/06 09:12:19;;;;;;;;;;;;;;;4.85;73.61;101428.38;5055541;28;20438;-60
2021/12/06 09:14:45;;;;;;;;;;;;;;;4.85;73.74;101442.97;5052300;28;19929;-63
2021/12/06 09:17:12;;;;;;;;;;;;;;;4.88;73.74;101436.22;5053618;28;19943;-61
2021/12/06 09:19:37;;;;;;;;;;;;;;;4.88;73.73;101434.31;5053009;28;19927;-60
2021/12/06 09:22:03;;;;;;;;;;;;;;;4.91;73.66;101435.81;5049622;28;19925;-60
2021/12/06 09:24:28;;;;;;;;;;;;;;;4.90;73.76;101431.38;5052859;28;19931;-61
2021/12/06 09:26:54;;;;;;;;;;;;;;;4.91;73.71;101431.19;5051090;28;20370;-62
2021/12/06 09:29:24;;;;;;;;;;;;;;;4.93;73.80;101429.06;5051368;28;19960;-62
2021/12/06 09:31:49;;;;;;;;;;;;;;;4.93;73.70;101441.97;5052001;28;20348;-62
2021/12/06 09:34:14;;;;;;;;;;;;;;;4.96;73.52;101443.47;5054286;28;19959;-62
2021/12/06 09:36:40;;;;;;;;;;;;;;;4.96;73.50;101438.81;5055445;28;19917;-62
2021/12/06 09:39:06;;;;;;;;;;;;;;;4.94;73.62;101435.41;5054621;28;19921;-62
2021/12/06 09:41:31;;;;;;;;;;;;;;;4.92;73.76;101437.53;5053984;28;19928;-62
2021/12/06 09:44:01;;;;;;;;;;;;;;;4.89;73.73;101438.78;5055269;28;19916;-62
2021/12/06 09:46:28;;;;;;;;;;;;;;;4.90;73.42;101431.38;5052359;28;19916;-62
2021/12/06 09:48:54;;;;;;;;;;;;;;;4.90;73.68;101436.88;5051605;28;19971;-62
2021/12/06 09:51:21;;;;;;;;;;;;;;;4.91;73.51;101435.81;5054052;28;19968;-62
2021/12/06 09:53:48;;;;;;;;;;;;;;;4.91;73.68;101438.56;5055178;28;19924;-62
2021/12/06 09:56:15;;;;;;;;;;;;;;;4.93;73.25;101445.56;5052665;28;19928;-62
2021/12/06 09:58:40;;;;;;;;;;;;;;;4.95;73.51;101448.09;5055032;28;19917;-62
2021/12/06 10:01:14;;;;;;;;;;;;;;;4.97;73.37;101445.19;5053989;28;19927;-62
2021/12/06 10:03:39;;;;;;;;;;;;;;;4.94;73.50;101438.16;5048787;28;20388;-61
2021/12/06 10:06:05;;;;;;;;;;;;;;;4.93;73.48;101434.56;5054478;28;19924;-61
2021/12/06 10:08:32;;;;;;;;;;;;;;;4.93;73.79;101439.22;5053346;28;20002;-61
2021/12/06 10:10:57;;;;;;;;;;;;;;;4.94;73.73;101435.41;5053869;28;20304;-62
2021/12/06 10:13:22;;;;;;;;;;;;;;;4.93;73.70;101419.97;5043778;28;19921;-62
2021/12/06 10:15:50;;;;;;;;;;;;;;;4.93;73.69;101415.31;5048603;28;19942;-62
2021/12/06 10:18:18;;;;;;;;;;;;;;;4.93;74.13;101409.81;5053210;28;20324;-61
2021/12/06 10:20:44;;;;;;;;;;;;;;;5.00;73.84;101409.00;5053437;28;19924;-63
2021/12/06 10:23:10;;;;;;;;;;;;;;;5.00;73.68;101401.59;5047110;28;19921;-64
2021/12/06 10:25:37;;;;;;;;;;;;;;;4.98;73.55;101409.19;5052784;28;20292;-64
2021/12/06 10:28:05;;;;;;;;;;;;;;;4.94;73.39;101396.91;5047068;28;19928;-65
2021/12/06 10:30:38;;;;;;;;;;;;;;;4.90;73.50;101387.34;5050672;28;20454;-64
2021/12/06 10:33:26;;;;;;;;;;;;;;;4.88;73.61;101394.97;5047247;28;19920;-65
2021/12/06 10:35:54;;;;;;;;;;;;;;;4.87;73.39;101404.25;5030282;28;19929;-65
2021/12/06 10:38:27;;;;;;;;;;;;;;;4.88;73.48;101401.31;5043373;28;20384;-64
2021/12/06 10:41:22;;;;;;;;;;;;;;;4.89;73.49;101400.25;5051326;28;20407;-64
2021/12/06 10:43:52;;;;;;;;;;;;;;;4.93;73.80;101396.06;5037953;28;19921;-64
2021/12/06 10:46:20;;;;;;;;;;;;;;;4.95;73.37;101390.34;5043526;28;20415;-61
2021/12/06 10:48:46;;;;;;;;;;;;;;;4.97;73.10;101388.25;5051594;28;19928;-61
2021/12/06 10:51:13;;;;;;;;;;;;;;;4.96;73.12;101369.19;5051906;28;19920;-61
2021/12/06 10:53:43;;;;;;;;;;;;;;;4.93;73.38;101375.94;5049496;28;19974;-61
2021/12/06 10:56:19;;;;;;;;;;;;;;;4.89;73.60;101353.50;5051775;28;20356;-61
2021/12/06 10:58:44;;;;;;;;;;;;;;;4.88;73.29;101342.72;5046703;28;19952;-62
2021/12/06 11:01:12;;;;;;;;;;;;;;;4.86;73.51;101331.91;5046990;28;19986;-63
2021/12/06 11:03:40;;;;;;;;;;;;;;;4.85;73.24;101332.13;5051173;28;19925;-62
2021/12/06 11:06:09;;;;;;;;;;;;;;;4.79;73.29;101338.41;5049015;28;19928;-61
2021/12/06 11:08:35;;;;;;;;;;;;;;;4.77;73.63;101333.13;5041459;28;20348;-63
2021/12/06 11:11:02;;;;;;;;;;;;;;;4.77;73.51;101351.53;5049911;28;19974;-62
2021/12/06 11:13:38;;;;;;;;;;;;;;;4.79;73.51;101338.41;5050546;28;19921;-62
2021/12/06 11:16:08;;;;;;;;;;;;;;;4.79;73.41;101335.66;5049291;28;20000;-62
2021/12/06 11:18:41;;;;;;;;;;;;;;;4.79;73.13;101333.75;5038608;28;19921;-62
2021/12/06 11:21:15;;;;;;;;;;;;;;;4.76;73.35;101323.19;5049836;28;20308;-62
2021/12/06 11:24:00;;;;;;;;;;;;;;;4.61;73.20;101320.56;5049358;28;19928;-62
2021/12/06 11:26:26;;;;;;;;;;;;;;;4.49;73.30;101304.84;5054022;28;20826;-63
2021/12/06 11:28:51;;;;;;;;;;;;;;;4.48;73.36;101300.38;5048546;28;19974;-62
2021/12/06 11:31:17;;;;;;;;;;;;;;;4.48;73.36;101305.88;5049514;28;19990;-62
2021/12/06 11:33:42;;;;;;;;;;;;;;;4.50;73.10;101301.03;5050224;28;19921;-61
2021/12/06 11:36:18;;;;;;;;;;;;;;;4.48;72.95;101308.63;5050572;28;19928;-60
2021/12/06 11:38:47;;;;;;;;;;;;;;;4.39;73.40;101303.28;5043175;28;19924;-61
2021/12/06 11:41:13;;;;;;;;;;;;;;;4.40;73.12;101296.75;5049971;28;19956;-62
2021/12/06 11:43:39;;;;;;;;;;;;;;;4.36;72.96;101300.09;5043126;28;20399;-63
2021/12/06 11:46:04;;;;;;;;;;;;;;;4.31;72.95;101292.44;5048073;28;19928;-63
2021/12/06 11:48:31;;;;;;;;;;;;;;;4.32;73.27;101287.81;5042899;28;20368;-63
2021/12/06 11:51:08;;;;;;;;;;;;;;;4.35;72.90;101281.91;5038082;28;20625;-62
2021/12/06 11:53:52;;;;;;;;;;;;;;;4.32;73.08;101280.44;5046373;28;19924;-59
2021/12/06 11:56:28;;;;;;;;;;;;;;;4.35;73.38;101287.41;5049991;28;20280;-62
2021/12/06 11:58:57;;;;;;;;;;;;;;;4.37;73.28;101268.81;5051076;28;20011;-61
2021/12/06 12:01:25;;;;;;;;;;;;;;;4.37;72.78;101280.66;5044236;28;19920;-62
2021/12/06 12:03:52;;;;;;;;;;;;;;;4.35;72.92;101270.91;5052222;28;19921;-61
2021/12/06 12:06:22;;;;;;;;;;;;;;;4.35;73.05;101266.25;5047684;28;19921;-60
2021/12/06 12:08:47;;;;;;;;;;;;;;;4.39;72.93;101263.97;5051403;28;19921;-60
2021/12/06 12:11:13;;;;;;;;;;;;;;;4.39;72.64;101261.22;5049440;28;20387;-60
2021/12/06 12:13:38;;;;;;;;;;;;;;;4.35;72.79;101254.44;5050346;28;19928;-60
2021/12/06 12:16:03;;;;;;;;;;;;;;;4.35;73.02;101254.44;5048579;28;19932;-62
2021/12/06 12:18:29;;;;;;;;;;;;;;;4.36;72.98;101251.50;5052306;28;19917;-61
2021/12/06 12:20:55;;;;;;;;;;;;;;;4.37;72.78;101252.34;5048884;28;19935;-61
2021/12/06 12:23:22;;;;;;;;;;;;;;;4.38;72.91;101240.28;5033646;28;19928;-61
2021/12/06 12:26:08;;;;;;;;;;;;;;;4.41;72.83;101237.97;5045935;28;19917;-61
2021/12/06 12:28:40;;;;;;;;;;;;;;;4.43;73.06;101226.78;5047308;28;19920;-59
2021/12/06 12:31:07;;;;;;;;;;;;;;;4.42;72.80;101216.84;5038629;28;19948;-59
2021/12/06 12:33:32;;;;;;;;;;;;;;;4.46;72.55;101212.63;5051144;28;19964;-60
2021/12/06 12:36:01;;;;;;;;;;;;;;;4.45;72.67;101221.09;5055285;28;20358;-59
2021/12/06 12:38:30;;;;;;;;;;;;;;;4.42;72.71;101220.44;5052776;28;19921;-60
2021/12/06 12:41:00;;;;;;;;;;;;;;;4.45;72.57;101218.34;5055544;28;19928;-60
2021/12/06 12:43:45;;;;;;;;;;;;;;;4.45;72.74;101210.94;5053160;28;19921;-60
2021/12/06 12:46:13;;;;;;;;;;;;;;;4.48;72.74;101209.66;5051447;28;20269;-61
2021/12/06 12:49:04;;;;;;;;;;;;;;;4.49;72.92;101206.72;5056509;28;19952;-61
2021/12/06 12:51:35;;;;;;;;;;;;;;;4.53;72.66;101202.50;5049714;28;19917;-61
2021/12/06 12:54:31;;;;;;;;;;;;;;;4.53;72.58;101198.94;5055632;28;19920;-61